Taurus — WDF3127 — position and weather

sailwx.info

Track history (hours):
 
Tides and Currents Weather Stations Pressure Air Temp Water Temp Dewpoint Dewpoint Depression Visibility Wind Speed Wind Dir Waves Ship Positions

Taurus

Owner: San Francisco Bay Area Water Emergency Transportation Authority, San Francisco, CA. More information available from US FCC via Universal Licensing System and Coast Guard Vessel Documentation Center.

Last reported at 2016-May-25 22:34 UTC. Time now 2016-May-25 22:43 UTC.
Position N 37°50' W 122°25'.

Length 35 m.

Type: Passenger vessel. MMSI: 367436230.

Date/timePositionNaut miles runAvg speedWind from/ knotsBaromVisibWave heightAir tempDewpointWater temp
2016-May-25 22:34N 37°50' W 122°25'2 1.7
2016-May-25 21:34N 37°49' W 122°25'0 0.0
2016-May-25 20:33N 37°49' W 122°25'0 0.0
2016-May-25 19:33N 37°49' W 122°25'0 0.0
2016-May-25 18:33N 37°49' W 122°25'6 5.5
2016-May-25 17:33N 37°47' W 122°18'4 4.5
2016-May-25 16:34N 37°48' W 122°24'1312.6
2016-May-25 15:33N 38°00' W 122°24'8 0.7
2016-May-25 04:16N 38°05' W 122°15'1419.5
2016-May-25 03:34N 37°54' W 122°25'1 1.2
2016-May-25 02:34N 37°54' W 122°27'1311.1
2016-May-25 01:22N 38°04' W 122°15'1721.2
2016-May-25 00:33N 37°48' W 122°23'5 4.5
2016-May-24 23:33N 37°47' W 122°18'6 5.6
2016-May-24 22:33N 37°49' W 122°25'1 1.2
2016-May-24 21:33N 37°48' W 122°24'0 0.0
2016-May-24 20:33N 37°48' W 122°24'0 0.0
2016-May-24 19:33N 37°48' W 122°24'0 0.0
2016-May-24 18:33N 37°48' W 122°24'0 0.0
2016-May-24 17:33N 37°48' W 122°24'0 0.0
2016-May-24 16:33N 37°48' W 122°24'8 8.0
2016-May-24 15:33N 37°40' W 122°23'9 8.6
2016-May-24 14:34N 37°48' W 122°18'6 5.7
2016-May-24 13:33N 37°49' W 122°25'0 0.0
2016-May-24 04:33N 37°49' W 122°25'3 3.1
2016-May-24 03:34N 37°48' W 122°21'3 3.2
2016-May-24 02:34N 37°49' W 122°25'6 5.7
2016-May-24 01:33N 37°47' W 122°18'5 5.4
2016-May-24 00:34N 37°43' W 122°21'7 6.6
2016-May-23 23:34N 37°49' W 122°25'1 1.4
2016-May-23 22:33N 37°50' W 122°25'2 1.6
2016-May-23 21:33N 37°49' W 122°25'0 0.0
2016-May-23 20:33N 37°49' W 122°25'0 0.0
2016-May-23 19:33N 37°49' W 122°25'0 0.0
2016-May-23 18:33N 37°49' W 122°25'6 5.7
2016-May-23 17:33N 37°47' W 122°18'5 4.7
2016-May-23 16:33N 37°48' W 122°24'1211.8
2016-May-23 15:33N 37°59' W 122°25'10 9.4
2016-May-23 14:32N 38°06' W 122°16'  
2016-May-21 04:32N 38°06' W 122°17'1414.5
2016-May-21 03:33N 37°54' W 122°25'2 1.8
2016-May-21 02:33N 37°55' W 122°27'1412.7
2016-May-21 01:29N 38°05' W 122°15'1819.9
2016-May-21 00:34N 37°48' W 122°24'4 3.8
2016-May-20 23:33N 37°48' W 122°19'5 4.9
2016-May-20 22:34N 37°49' W 122°25'1 0.9
2016-May-20 21:33N 37°48' W 122°24'0 0.0
2016-May-20 20:34N 37°48' W 122°24'0 0.0
2016-May-20 19:33N 37°48' W 122°24'1 0.9
2016-May-20 18:33N 37°49' W 122°25'5 4.6
2016-May-20 17:34N 37°48' W 122°19'4 3.6
2016-May-20 16:33N 37°48' W 122°24'1212.0
2016-May-20 15:33N 37°60' W 122°25'9 9.1
2016-May-20 14:32N 38°07' W 122°16'0 0.0
2016-May-20 04:33N 38°07' W 122°17'1414.0
2016-May-20 03:33N 37°54' W 122°25'2 2.4
2016-May-20 02:33N 37°57' W 122°27'1312.3
2016-May-20 01:32N 38°05' W 122°15'1918.8
2016-May-20 00:33N 37°48' W 122°24'5 4.5
2016-May-19 23:33N 37°47' W 122°18'6 5.8
2016-May-19 22:33N 37°49' W 122°25'1918.6
2016-May-19 21:33N 38°06' W 122°16'0 0.0
2016-May-19 18:28N 38°06' W 122°17'0 0.0
2016-May-19 16:05N 38°07' W 122°17'0 0.0
2016-May-19 15:33N 38°07' W 122°17'0 0.0
2016-May-19 14:32N 38°07' W 122°17'0 0.0
2016-May-19 04:33N 38°07' W 122°17'1413.7
2016-May-19 03:33N 37°55' W 122°25'1 0.9
2016-May-19 02:34N 37°55' W 122°26'1312.8
2016-May-19 01:33N 38°05' W 122°15'1918.9
2016-May-19 00:34N 37°48' W 122°24'5 4.7
2016-May-18 23:34N 37°47' W 122°18'5 4.9
2016-May-18 22:34N 37°48' W 122°24'0 0.0
2016-May-18 21:33N 37°48' W 122°24'0 0.0
2016-May-18 20:34N 37°48' W 122°24'0 0.0
2016-May-18 19:34N 37°48' W 122°24'1 0.9
2016-May-18 18:34N 37°49' W 122°25'5 5.2
2016-May-18 17:33N 37°48' W 122°18'4 4.2
2016-May-18 16:33N 37°48' W 122°24'1212.2
2016-May-18 15:33N 37°60' W 122°24'9 9.1
2016-May-18 14:33N 38°06' W 122°16'1 0.1
2016-May-18 04:33N 38°07' W 122°17'1414.3
2016-May-18 03:33N 37°54' W 122°25'1 1.0
2016-May-18 02:33N 37°54' W 122°26'1514.7
2016-May-18 01:34N 38°06' W 122°16'1918.9
2016-May-18 00:33N 37°48' W 122°24'4 4.0
2016-May-17 23:34N 37°48' W 122°19'5 5.0
2016-May-17 22:34N 37°49' W 122°25'1 0.9
2016-May-17 21:33N 37°48' W 122°24'0 0.0
2016-May-17 20:33N 37°48' W 122°24'0 0.0
2016-May-17 19:33N 37°48' W 122°24'0 0.0
2016-May-17 18:33N 37°48' W 122°24'0 0.0
2016-May-17 17:33N 37°48' W 122°24'0 0.0
2016-May-17 16:33N 37°48' W 122°24'8 7.8
2016-May-17 15:34N 37°40' W 122°22'8 7.8
2016-May-17 14:33N 37°48' W 122°18'6 5.6
2016-May-17 13:33N 37°49' W 122°25'0 0.0
2016-May-17 04:34N 37°49' W 122°25'3 3.5
2016-May-17 03:34N 37°48' W 122°20'3 3.5
2016-May-17 02:33N 37°49' W 122°25'0 0.5
2016-May-17 01:34N 37°49' W 122°24'6 6.0
2016-May-17 00:34N 37°43' W 122°21'5 5.2
2016-May-16 23:34N 37°48' W 122°23'2 2.2
2016-May-16 22:33N 37°50' W 122°25'2 1.5
2016-May-16 21:33N 37°49' W 122°25'0 0.0
2016-May-16 20:33N 37°49' W 122°25'0 0.0
2016-May-16 19:33N 37°49' W 122°25'0 0.0
2016-May-16 18:33N 37°49' W 122°25'6 5.6
2016-May-16 17:33N 37°47' W 122°18'5 4.6
2016-May-16 16:33N 37°48' W 122°24'1312.5
2016-May-16 15:33N 38°00' W 122°24'8 8.4
2016-May-16 14:33N 38°06' W 122°16'  
Track history (hours):
 
Tides and Currents Weather Stations Pressure Air Temp Water Temp Dewpoint Dewpoint Depression Visibility Wind Speed Wind Dir Waves Ship Positions

Taurus

Owner: San Francisco Bay Area Water Emergency Transportation Authority, San Francisco, CA. More information available from US FCC via Universal Licensing System and Coast Guard Vessel Documentation Center.

Last reported at 2016-May-25 22:34 UTC. Time now 2016-May-25 22:43 UTC.
Position N 37°50' W 122°25'.

Length 35 m.

Type: Passenger vessel. MMSI: 367436230.

Date/timePositionNaut miles runAvg speedWind from/ knotsBaromVisibWave heightAir tempDewpointWater temp
2016-May-25 22:34N 37°50' W 122°25'2 1.7
2016-May-25 21:34N 37°49' W 122°25'0 0.0
2016-May-25 20:33N 37°49' W 122°25'0 0.0
2016-May-25 19:33N 37°49' W 122°25'0 0.0
2016-May-25 18:33N 37°49' W 122°25'6 5.5
2016-May-25 17:33N 37°47' W 122°18'4 4.5
2016-May-25 16:34N 37°48' W 122°24'1312.6
2016-May-25 15:33N 38°00' W 122°24'8 0.7
2016-May-25 04:16N 38°05' W 122°15'1419.5
2016-May-25 03:34N 37°54' W 122°25'1 1.2
2016-May-25 02:34N 37°54' W 122°27'1311.1
2016-May-25 01:22N 38°04' W 122°15'1721.2
2016-May-25 00:33N 37°48' W 122°23'5 4.5
2016-May-24 23:33N 37°47' W 122°18'6 5.6
2016-May-24 22:33N 37°49' W 122°25'1 1.2
2016-May-24 21:33N 37°48' W 122°24'0 0.0
2016-May-24 20:33N 37°48' W 122°24'0 0.0
2016-May-24 19:33N 37°48' W 122°24'0 0.0
2016-May-24 18:33N 37°48' W 122°24'0 0.0
2016-May-24 17:33N 37°48' W 122°24'0 0.0
2016-May-24 16:33N 37°48' W 122°24'8 8.0
2016-May-24 15:33N 37°40' W 122°23'9 8.6
2016-May-24 14:34N 37°48' W 122°18'6 5.7
2016-May-24 13:33N 37°49' W 122°25'0 0.0
2016-May-24 04:33N 37°49' W 122°25'3 3.1
2016-May-24 03:34N 37°48' W 122°21'3 3.2
2016-May-24 02:34N 37°49' W 122°25'6 5.7
2016-May-24 01:33N 37°47' W 122°18'5 5.4
2016-May-24 00:34N 37°43' W 122°21'7 6.6
2016-May-23 23:34N 37°49' W 122°25'1 1.4
2016-May-23 22:33N 37°50' W 122°25'2 1.6
2016-May-23 21:33N 37°49' W 122°25'0 0.0
2016-May-23 20:33N 37°49' W 122°25'0 0.0
2016-May-23 19:33N 37°49' W 122°25'0 0.0
2016-May-23 18:33N 37°49' W 122°25'6 5.7
2016-May-23 17:33N 37°47' W 122°18'5 4.7
2016-May-23 16:33N 37°48' W 122°24'1211.8
2016-May-23 15:33N 37°59' W 122°25'10 9.4
2016-May-23 14:32N 38°06' W 122°16'  
2016-May-21 04:32N 38°06' W 122°17'1414.5
2016-May-21 03:33N 37°54' W 122°25'2 1.8
2016-May-21 02:33N 37°55' W 122°27'1412.7
2016-May-21 01:29N 38°05' W 122°15'1819.9
2016-May-21 00:34N 37°48' W 122°24'4 3.8
2016-May-20 23:33N 37°48' W 122°19'5 4.9
2016-May-20 22:34N 37°49' W 122°25'1 0.9
2016-May-20 21:33N 37°48' W 122°24'0 0.0
2016-May-20 20:34N 37°48' W 122°24'0 0.0
2016-May-20 19:33N 37°48' W 122°24'1 0.9
2016-May-20 18:33N 37°49' W 122°25'5 4.6
2016-May-20 17:34N 37°48' W 122°19'4 3.6
2016-May-20 16:33N 37°48' W 122°24'1212.0
2016-May-20 15:33N 37°60' W 122°25'9 9.1
2016-May-20 14:32N 38°07' W 122°16'0 0.0
2016-May-20 04:33N 38°07' W 122°17'1414.0
2016-May-20 03:33N 37°54' W 122°25'2 2.4
2016-May-20 02:33N 37°57' W 122°27'1312.3
2016-May-20 01:32N 38°05' W 122°15'1918.8
2016-May-20 00:33N 37°48' W 122°24'5 4.5
2016-May-19 23:33N 37°47' W 122°18'6 5.8
2016-May-19 22:33N 37°49' W 122°25'1918.6
2016-May-19 21:33N 38°06' W 122°16'0 0.0
2016-May-19 18:28N 38°06' W 122°17'0 0.0
2016-May-19 16:05N 38°07' W 122°17'0 0.0
2016-May-19 15:33N 38°07' W 122°17'0 0.0
2016-May-19 14:32N 38°07' W 122°17'0 0.0
2016-May-19 04:33N 38°07' W 122°17'1413.7
2016-May-19 03:33N 37°55' W 122°25'1 0.9
2016-May-19 02:34N 37°55' W 122°26'1312.8
2016-May-19 01:33N 38°05' W 122°15'1918.9
2016-May-19 00:34N 37°48' W 122°24'5 4.7
2016-May-18 23:34N 37°47' W 122°18'5 4.9
2016-May-18 22:34N 37°48' W 122°24'0 0.0
2016-May-18 21:33N 37°48' W 122°24'0 0.0
2016-May-18 20:34N 37°48' W 122°24'0 0.0
2016-May-18 19:34N 37°48' W 122°24'1 0.9
2016-May-18 18:34N 37°49' W 122°25'5 5.2
2016-May-18 17:33N 37°48' W 122°18'4 4.2
2016-May-18 16:33N 37°48' W 122°24'1212.2
2016-May-18 15:33N 37°60' W 122°24'9 9.1
2016-May-18 14:33N 38°06' W 122°16'1 0.1
2016-May-18 04:33N 38°07' W 122°17'1414.3
2016-May-18 03:33N 37°54' W 122°25'1 1.0
2016-May-18 02:33N 37°54' W 122°26'1514.7
2016-May-18 01:34N 38°06' W 122°16'1918.9
2016-May-18 00:33N 37°48' W 122°24'4 4.0
2016-May-17 23:34N 37°48' W 122°19'5 5.0
2016-May-17 22:34N 37°49' W 122°25'1 0.9
2016-May-17 21:33N 37°48' W 122°24'0 0.0
2016-May-17 20:33N 37°48' W 122°24'0 0.0
2016-May-17 19:33N 37°48' W 122°24'0 0.0
2016-May-17 18:33N 37°48' W 122°24'0 0.0
2016-May-17 17:33N 37°48' W 122°24'0 0.0
2016-May-17 16:33N 37°48' W 122°24'8 7.8
2016-May-17 15:34N 37°40' W 122°22'8 7.8
2016-May-17 14:33N 37°48' W 122°18'6 5.6
2016-May-17 13:33N 37°49' W 122°25'0 0.0
2016-May-17 04:34N 37°49' W 122°25'3 3.5
2016-May-17 03:34N 37°48' W 122°20'3 3.5
2016-May-17 02:33N 37°49' W 122°25'0 0.5
2016-May-17 01:34N 37°49' W 122°24'6 6.0
2016-May-17 00:34N 37°43' W 122°21'5 5.2
2016-May-16 23:34N 37°48' W 122°23'2 2.2
2016-May-16 22:33N 37°50' W 122°25'2 1.5
2016-May-16 21:33N 37°49' W 122°25'0 0.0
2016-May-16 20:33N 37°49' W 122°25'0 0.0
2016-May-16 19:33N 37°49' W 122°25'0 0.0
2016-May-16 18:33N 37°49' W 122°25'6 5.6
2016-May-16 17:33N 37°47' W 122°18'5 4.6
2016-May-16 16:33N 37°48' W 122°24'1312.5
2016-May-16 15:33N 38°00' W 122°24'8 8.4
2016-May-16 14:33N 38°06' W 122°16'  

Dump ship's entire track history